• Join FlightAware (Why Join?)
  • Login
  • US Flag 
02:32AM EDT


 

Airport Tracker/Info


-or-


 

Live Flight TrackerFlight Track Log ✈ SWA285 ✈ 03-May-2013 ✈ KIAD - KDEN

Flight Track Log - Related Links

Times and Time Zones

All times are in EDT time to prevent confusion due to time zone crossing. See the SWA285 flight status page for this flight to view local times or setup timezone preferences in your user account.

Time Position Orientation Groundspeed Altitude Reporting Facility
EDT Latitude Longitude Course Direction KTS MPH feet Rate Location/Type
07:06AM 38.9333 -77.5500 270° West 206 237 2,500  Level Potomac TRACON
07:07AM 38.9167 -77.6500 258° West 250 288 4,600 1,680 Climbing Potomac TRACON
07:08AM 38.9056 -77.6831 247° West 265 305 5,000 2,040 Climbing Washington Center
07:09AM 38.8894 -77.7811 258° West 288 331 7,600 2,820 Climbing Washington Center
07:10AM 38.8811 -77.8878 264° West 293 337 10,800 2,640 Climbing Washington Center
07:11AM 38.8703 -78.0125 264° West 325 374 13,000 2,760 Climbing Washington Center
07:12AM 38.8500 -78.2247 270° West  Level FlightAware Approximate
07:12AM 38.8592 -78.1483 264° West 362 417 16,400  Level Washington Center
07:13AM 38.8519 -78.2839 266° West 386 444 17,500 1,800 Climbing Washington Center
07:14AM 38.8508 -78.4253 269° West 386 444 20,100 2,640 Climbing Washington Center
07:15AM 38.8494 -78.5717 269° West 397 457 22,900 2,520 Climbing Washington Center
07:16AM 38.8478 -78.7183 269° West 408 470 25,200 2,160 Climbing Washington Center
07:17AM 38.8478 -78.8703 270° West 419 482 27,200 1,920 Climbing Washington Center
07:18AM 38.8456 -79.0247 269° West 424 488 29,000 1,560 Climbing Washington Center
07:19AM 38.8431 -79.1819 269° West 436 502 30,500 1,740 Climbing Washington Center
07:20AM 38.8406 -79.3389 269° West 442 509 32,500 1,860 Climbing Washington Center
07:21AM 38.8375 -79.4961 269° West 442 509 34,200 1,560 Climbing Washington Center
07:22AM 38.8325 -79.6450 268° West 442 509 35,700 1,800 Climbing Washington Center
07:23AM 38.8311 -79.8103 269° West 442 509 37,800 1,140 Climbing Washington Center
07:24AM 38.8258 -79.9567 267° West 436 502 38,000 60 Climbing Washington Center
07:25AM 38.8244 -80.1058 269° West 425 489 38,000  Level Washington Center
07:26AM 38.8194 -80.2386 267° West 419 482 38,000  Level Washington Center
07:27AM 38.8133 -80.3961 267° West 415 478 38,000  Level Indianapolis Center
07:28AM 38.8103 -80.5414 268° West 409 471 38,000  Level Indianapolis Center
07:29AM 38.8061 -80.6883 268° West 411 473 38,000  Level Indianapolis Center
07:30AM 38.8025 -80.8347 268° West 414 476 38,000  Level Indianapolis Center
07:31AM 38.7975 -80.9808 268° West 411 473 38,000  Level Indianapolis Center
07:32AM 38.7936 -81.1278 268° West 413 475 38,000  Level Indianapolis Center
07:33AM 38.7886 -81.2744 268° West 413 475 38,000  Level Indianapolis Center
07:34AM 38.7828 -81.4350 267° West 410 472 38,000  Level Indianapolis Center
07:35AM 38.7792 -81.5853 268° West 418 481 38,000  Level Indianapolis Center
07:36AM 38.7739 -81.7383 268° West 418 481 38,000  Level Indianapolis Center
07:37AM 38.7681 -81.8833 267° West 413 475 38,000  Level Indianapolis Center
07:38AM 38.7625 -82.0278 267° West 408 470 38,000  Level Indianapolis Center
07:39AM 38.7558 -82.1725 267° West 407 468 38,000  Level Indianapolis Center
07:40AM 38.7503 -82.3156 267° West 404 465 38,000  Level Indianapolis Center
07:41AM 38.7428 -82.4878 267° West 404 465 38,000  Level Indianapolis Center
07:42AM 38.7364 -82.6306 267° West 402 463 38,000  Level Indianapolis Center
07:43AM 38.7294 -82.7733 266° West 402 463 38,000  Level Indianapolis Center
07:44AM 38.7233 -82.9158 267° West 402 463 38,000  Level Indianapolis Center
07:45AM 38.7269 -83.0597 272° West 404 465 38,000  Level Indianapolis Center
07:46AM 38.7381 -83.1986 276° West 409 471 38,000  Level Indianapolis Center
07:47AM 38.7489 -83.3469 275° West 413 475 38,000  Level Indianapolis Center
07:48AM 38.7614 -83.5219 275° West 418 481 38,000  Level Indianapolis Center
07:49AM 38.7719 -83.6722 275° West 418 481 38,000  Level Indianapolis Center
07:50AM 38.7828 -83.8217 275° West 418 481 38,000  Level Indianapolis Center
07:51AM 38.7931 -83.9717 275° West 416 479 38,000  Level Indianapolis Center
07:53AM 38.8031 -84.1217 275° West 417 480 38,000  Level Indianapolis Center
07:54AM 38.8139 -84.2697 275° West 416 479 38,000  Level Indianapolis Center
07:55AM 38.8222 -84.4186 274° West 415 478 38,000  Level Indianapolis Center
07:56AM 38.8331 -84.5758 275° West 410 472 38,000  Level Indianapolis Center
07:57AM 38.8417 -84.7233 274° West 414 476 38,000  Level Indianapolis Center
07:58AM 38.8508 -84.8700 275° West 415 478 38,000  Level Indianapolis Center
07:59AM 38.8600 -85.0167 275° West 415 478 38,000  Level Indianapolis Center
08:00AM 38.8689 -85.1631 275° West 414 476 38,000  Level Indianapolis Center
08:01AM 38.8769 -85.3108 274° West 418 481 38,000  Level Indianapolis Center
08:02AM 38.8856 -85.4583 274° West 416 479 38,000  Level Indianapolis Center
08:03AM 38.8939 -85.6064 274° West 417 480 38,000  Level Indianapolis Center
08:04AM 38.9011 -85.7547 274° West 417 480 38,000  Level Indianapolis Center
08:05AM 38.9111 -85.9325 274° West 419 482 38,000  Level Indianapolis Center
08:06AM 38.9178 -86.0814 273° West 419 482 38,000  Level Indianapolis Center
08:07AM 38.9253 -86.2306 274° West 419 482 38,000  Level Indianapolis Center
08:08AM 38.9336 -86.3800 274° West 420 483 38,000  Level Indianapolis Center
08:09AM 38.9397 -86.5303 273° West 421 484 38,000  Level Indianapolis Center
08:10AM 38.9464 -86.6747 273° West 420 483 38,000  Level Indianapolis Center
08:11AM 38.9528 -86.8247 273° West 421 484 38,000  Level Indianapolis Center
08:12AM 38.9597 -86.9769 273° West 425 489 38,000  Level Indianapolis Center
08:13AM 38.9672 -87.1606 273° West 430 495 38,000  Level Indianapolis Center
08:14AM 38.9731 -87.3122 273° West 428 493 38,000  Level Indianapolis Center
08:15AM 38.9792 -87.4647 273° West 428 493 38,000  Level Indianapolis Center
08:16AM 38.9844 -87.6172 273° West 428 493 38,000  Level Indianapolis Center
08:17AM 38.9903 -87.7686 273° West 426 490 38,000  Level Indianapolis Center
08:18AM 38.9953 -87.9200 272° West 426 490 38,000  Level Indianapolis Center
08:19AM 39.0011 -88.0733 273° West 427 491 38,000 60 Level Indianapolis Center
08:20AM 39.0058 -88.2250 272° West 427 491 38,200 600 Climbing Indianapolis Center
08:21AM 39.0106 -88.3792 272° West 429 494 39,300 1,080 Climbing Indianapolis Center
08:22AM 39.0119 -88.4722 271° West 428 493 39,900 420 Climbing Kansas City Center
08:23AM 39.0164 -88.6247 272° West 426 490 40,000  Climbing Kansas City Center
08:24AM 39.0203 -88.7950 272° West 427 491 40,000  Level Kansas City Center
08:25AM 39.0242 -88.9444 272° West 423 487 40,000  Level Kansas City Center
08:26AM 39.0292 -89.0997 272° West 421 484 40,000  Level Kansas City Center
08:27AM 39.0319 -89.2475 271° West 417 480 40,000  Level Kansas City Center
08:28AM 39.0367 -89.4081 272° West 418 481 40,000  Level Kansas City Center
08:29AM 39.0397 -89.5575 272° West 419 482 40,000  Level Kansas City Center
08:30AM 39.0436 -89.7078 272° West 422 486 40,000  Level Kansas City Center
08:31AM 39.0461 -89.8592 271° West 425 489 40,000  Level Kansas City Center
08:32AM 39.0483 -89.9922 271° West 426 490 40,000  Level Kansas City Center
08:33AM 39.0514 -90.1750 271° West 429 494 40,000  Level Kansas City Center
08:34AM 39.0536 -90.3264 271° West 430 495 40,000  Level Kansas City Center
08:35AM 39.0553 -90.4775 271° West 428 493 40,000  Level Kansas City Center
08:36AM 39.0575 -90.6283 271° West 427 491 40,000  Level Kansas City Center
08:37AM 39.0597 -90.7769 271° West 422 486 40,000  Level Kansas City Center
08:38AM 39.0608 -90.9286 271° West 425 489 40,000  Level Kansas City Center
08:39AM 39.0622 -91.0814 271° West 429 494 40,000  Level Kansas City Center
08:40AM 39.0639 -91.2339 271° West 429 494 40,000  Level Kansas City Center
08:41AM 39.0639 -91.4194 270° West 433 498 40,000  Level Kansas City Center
08:42AM 39.0647 -91.5736 270° West 433 498 40,000  Level Kansas City Center
08:43AM 39.0644 -91.7233 270° West 434 499 40,000  Level Kansas City Center
08:44AM 39.0653 -91.8786 270° West 434 499 40,000  Level Kansas City Center
08:45AM 39.0636 -92.0364 269° West 439 505 40,000  Level Kansas City Center
08:46AM 39.0633 -92.1892 270° West 432 497 40,000  Level Kansas City Center
08:47AM 39.0622 -92.3478 270° West 437 503 40,000  Level Kansas City Center
08:48AM 39.0619 -92.5375 270° West 441 507 40,000  Level Kansas City Center
08:49AM 39.0606 -92.6989 269° West 446 513 40,000  Level Kansas City Center
08:50AM 39.0592 -92.8358 269° West 449 517 40,000  Level Kansas City Center
08:51AM 39.0581 -92.9933 270° West 446 513 40,000  Level Kansas City Center
08:52AM 39.0547 -93.1850 269° West 446 513 40,000  Level Kansas City Center
08:53AM 39.0528 -93.3431 269° West 445 512 40,000  Level Kansas City Center
08:54AM 39.0536 -93.5122 270° West 445 512 40,000  Level Kansas City Center
08:55AM 39.0519 -93.6653 269° West 447 514 40,000  Level Kansas City Center
08:56AM 39.0492 -93.8186 269° West 447 514 40,000  Level Kansas City Center
08:57AM 39.0464 -93.9983 269° West 449 517 40,000  Level Kansas City Center
08:58AM 39.0433 -94.1511 269° West 447 514 40,000  Level Kansas City Center
08:59AM 39.0403 -94.3031 269° West 444 511 40,000  Level Kansas City Center
09:00AM 39.0369 -94.4803 269° West 441 507 40,000  Level Kansas City Center
09:01AM 39.0333 -94.6325 268° West 443 510 40,000  Level Kansas City Center
09:02AM 39.0289 -94.8103 268° West 444 511 40,000  Level Kansas City Center
09:03AM 39.0250 -94.9631 268° West 444 511 40,000  Level Kansas City Center
09:05AM 39.0208 -95.1300 268° West 445 512 40,000  Level Kansas City Center
09:06AM 39.0161 -95.2897 268° West 446 513 40,000  Level Kansas City Center
09:07AM 39.0108 -95.4614 268° West 446 513 40,000  Level Kansas City Center
09:08AM 39.0069 -95.6044 268° West 444 511 40,000  Level Kansas City Center
09:09AM 39.0017 -95.7550 267° West 441 507 40,000  Level Kansas City Center
09:10AM 38.9956 -95.9308 267° West 440 506 40,000  Level Kansas City Center
09:11AM 38.9906 -96.0769 268° West 427 491 40,000  Level Kansas City Center
09:12AM 38.9806 -96.2453 266° West 424 488 40,000  Level Kansas City Center
09:13AM 38.9789 -96.3928 269° West 427 491 40,000  Level Kansas City Center
09:14AM 38.9692 -96.5539 266° West 432 497 40,000  Level Kansas City Center
09:15AM 38.9631 -96.7100 267° West 437 503 40,000  Level Kansas City Center
09:16AM 38.9592 -96.8689 268° West 444 511 40,000  Level Kansas City Center
09:17AM 38.9525 -97.0250 267° West 440 506 40,000  Level Kansas City Center
09:18AM 38.9458 -97.1822 267° West 441 507 40,000  Level Kansas City Center
09:19AM 38.9383 -97.3386 267° West 440 506 40,000  Level Kansas City Center
09:20AM 38.9300 -97.5178 267° West 437 503 40,000  Level Kansas City Center
09:21AM 38.9225 -97.6642 266° West 432 497 40,000  Level Kansas City Center
09:22AM 38.9153 -97.8381 267° West 435 501 40,000  Level Kansas City Center
09:23AM 38.9094 -97.9878 267° West 439 505 40,000  Level Kansas City Center
09:24AM 38.9028 -98.1433 267° West 439 505 40,000  Level Kansas City Center
09:25AM 38.8958 -98.2972 267° West 435 501 40,000  Level Kansas City Center
09:26AM 38.8894 -98.4528 267° West 437 503 40,000  Level Kansas City Center
09:27AM 38.8811 -98.6064 266° West 434 499 40,000  Level Kansas City Center
09:28AM 38.8733 -98.7922 267° West 435 501 40,000  Level Kansas City Center
09:29AM 38.8661 -98.9478 267° West 438 504 40,000  Level Kansas City Center
09:30AM 38.8572 -99.1031 266° West 440 506 40,000  Level Kansas City Center
09:31AM 38.8481 -99.2608 266° West 444 511 40,000  Level Kansas City Center
09:32AM 38.8486 -99.3872 270° West 440 506 40,000  Level Denver Center
09:33AM 38.8508 -99.5397 271° West 446 513 40,000  Level Denver Center
09:34AM 38.8522 -99.6897 271° West 442 509 40,000  Level Denver Center
09:35AM 38.8525 -99.8642 270° West 439 505 40,000  Level Denver Center
09:36AM 38.8531 -100.0136 270° West 439 505 40,000  Level Denver Center
09:37AM 38.8550 -100.1636 271° West 441 507 40,000  Level Denver Center
09:38AM 38.8544 -100.3350 270° West 432 497 40,000  Level Denver Center
09:39AM 38.8558 -100.4836 271° West 435 501 40,000  Level Denver Center
09:40AM 38.8547 -100.6539 270° West 432 497 40,000  Level Denver Center
09:41AM 38.8547 -100.8058 270° West 439 505 40,000  Level Denver Center
09:42AM 38.8544 -100.9553 270° West 439 505 40,000  Level Denver Center
09:43AM 38.8539 -101.1283 270° West 437 503 40,000  Level Denver Center
09:44AM 38.8533 -101.2750 270° West 431 496 40,000  Level Denver Center
09:45AM 38.8514 -101.4256 269° West 438 504 40,000 -780 Level Denver Center
09:46AM 38.8514 -101.5958 270° West 432 497 38,500 -1,920 Descending Denver Center
09:47AM 38.8494 -101.7400 269° West 426 490 36,100 -1,740 Descending Denver Center
09:48AM 38.8481 -101.9067 269° West 419 482 35,000 -600 Descending Denver Center
09:49AM 38.8464 -102.0467 269° West 412 474 35,000  Level Denver Center
09:50AM 38.8450 -102.1856 269° West 408 470 35,000  Level Denver Center
09:51AM 38.8889 -102.3264 292° West 380 437 35,000  Level Denver Center
09:52AM 38.9278 -102.4469 293° West 380 437 35,000  Level Denver Center
09:53AM 38.9722 -102.5886 292° West 384 442 35,000  Level Denver Center
09:54AM 39.0103 -102.7103 292° West 384 442 35,000  Level Denver Center
09:55AM 39.0525 -102.8381 293° West 384 442 35,000 -540 Level Denver Center
09:56AM 39.0928 -102.9658 292° West 382 440 34,000 -1,920 Descending Denver Center
09:57AM 39.1333 -103.0950 292° West 386 444 31,100 -2,640 Descending Denver Center
09:58AM 39.1742 -103.2217 293° West 382 440 28,700 -2,280 Descending Denver Center
09:59AM 39.2128 -103.3436 292° West 365 420 26,500 -2,220 Descending Denver Center
10:00AM 39.2494 -103.4611 292° West 351 404 24,300 -2,100 Descending Denver Center
10:01AM 39.2856 -103.5764 292° West 345 397 22,200 -2,040 Descending Denver Center
10:02AM 39.3197 -103.6878 292° West 332 382 20,200 -1,980 Descending Denver Center
10:03AM 39.3586 -103.8142 292° West 323 372 18,200 -1,620 Descending Denver Center
10:04AM 39.3908 -103.9203 291° West 320 368 17,000 -1,080 Descending Denver Center
10:05AM 39.4389 -104.0122 304° West 299 344 16,000 -1,320 Descending Denver Center
10:07AM 39.4869 -104.0928 308° West 286 329 14,400 -1,500 Descending Denver Center
10:08AM 39.5567 -104.1314 337° Northwest 276 318 13,000 -840 Descending Denver Center
10:09AM 39.6231 -104.1800 331° Northwest 253 291 12,800 -660 Descending Denver Center
10:10AM 39.6797 -104.2203 331° Northwest 234 269 11,700 -1,200 Descending Denver Center
10:11AM 39.7294 -104.2714 322° Northwest 231 266 10,400 -1,320 Descending Denver Center
10:12AM 39.7711 -104.3383 309° West 220 253 9,100 -960 Descending Denver Center
10:13AM 39.8083 -104.3981 309° West 214 246 8,500 -900 Descending Denver Center
10:14AM 39.8461 -104.4594 309° West 218 251 7,300 -900 Descending Denver Center
10:15AM 39.8753 -104.5164 304° West 181 208 6,700 -660 Descending Denver Center
10:16AM 39.8769 -104.5756 272° West 166 191 6,000 -780 Descending Denver Center
10:17AM 39.8769 -104.6269 270° West 145 167 5,200 -780 Descending Denver Center
10:19AM 39.8500 -104.6667 North  Level FlightAware Approximate
10:26AM 39.8617 -104.6732 North  Level Estimated
10:27AM 39.8617 -104.6732 North  Level Estimated
10:28AM 39.8617 -104.6732 North  Level Estimated